SAA56 FAOR-DGAA
Flight info
| Callsign | SAA56 |
|---|---|
| Flight time | 5h 34m |
| Altitude | 40000 |
| Route | VASUR3A VASUR UQ24 ETOSA DCT UVLUK UL307 AVOGU UL307 ABAPU/N0487F400 UL307 ONTAR DCT TERBA DCT GANBI UY149 BUMBO DCT RASET |
| Aircraft | A359/H-SDE2E3GHIJ3J4J5LM1ORWXY/LB1D1 |
Departure
| Time | 2026-04-24 09:41 |
|---|---|
| Airport | O.R. Tambo International Airport (FAOR) |
Arrival
| Time | 2026-04-24 15:16 |
|---|---|
| Airport | Kotoka International Airport (DGAA) |
| Time | Latitude | Longitude | Altitude | Speed | Heading |
|---|---|---|---|---|---|
| 2026-04-24 09:24 | -26.13227 | 28.23317 | 5553 ft | 0 kts | 276° |
| 2026-04-24 09:30 | -26.13229 | 28.23330 | 5556 ft | 4 kts | 276° |
| 2026-04-24 09:30 | -26.13231 | 28.23360 | 5554 ft | 4 kts | 272° |
| 2026-04-24 09:30 | -26.13227 | 28.23388 | 5554 ft | 4 kts | 236° |
| 2026-04-24 09:30 | -26.13209 | 28.23404 | 5554 ft | 3 kts | 189° |
| 2026-04-24 09:31 | -26.13188 | 28.23407 | 5554 ft | 4 kts | 186° |
| 2026-04-24 09:31 | -26.13173 | 28.23409 | 5554 ft | 0 kts | 186° |
| 2026-04-24 09:35 | -26.13175 | 28.23409 | 5554 ft | 1 kts | 186° |
| 2026-04-24 09:35 | -26.13200 | 28.23406 | 5554 ft | 6 kts | 186° |
| 2026-04-24 09:35 | -26.13250 | 28.23400 | 5557 ft | 8 kts | 186° |
| 2026-04-24 09:36 | -26.13318 | 28.23392 | 5556 ft | 15 kts | 186° |
| 2026-04-24 09:36 | -26.13395 | 28.23390 | 5556 ft | 9 kts | 163° |
| 2026-04-24 09:36 | -26.13425 | 28.23445 | 5555 ft | 9 kts | 98° |
| 2026-04-24 09:36 | -26.13434 | 28.23516 | 5556 ft | 9 kts | 97° |
| 2026-04-24 09:37 | -26.13453 | 28.23585 | 5560 ft | 10 kts | 135° |
| 2026-04-24 09:37 | -26.13525 | 28.23578 | 5560 ft | 13 kts | 197° |
| 2026-04-24 09:37 | -26.13632 | 28.23544 | 5560 ft | 18 kts | 195° |
| 2026-04-24 09:37 | -26.13767 | 28.23504 | 5563 ft | 22 kts | 195° |
| 2026-04-24 09:38 | -26.13916 | 28.23458 | 5565 ft | 23 kts | 195° |
| 2026-04-24 09:38 | -26.14071 | 28.23411 | 5570 ft | 22 kts | 195° |
| 2026-04-24 09:38 | -26.14220 | 28.23365 | 5569 ft | 21 kts | 195° |
| 2026-04-24 09:38 | -26.14339 | 28.23328 | 5569 ft | 11 kts | 195° |
| 2026-04-24 09:39 | -26.14415 | 28.23305 | 5569 ft | 12 kts | 195° |
| 2026-04-24 09:39 | -26.14503 | 28.23281 | 5568 ft | 14 kts | 186° |
| 2026-04-24 09:39 | -26.14577 | 28.23294 | 5571 ft | 9 kts | 152° |
| 2026-04-24 09:39 | -26.14605 | 28.23346 | 5570 ft | 7 kts | 105° |
| 2026-04-24 09:40 | -26.14619 | 28.23404 | 5570 ft | 8 kts | 101° |
| 2026-04-24 09:40 | -26.14596 | 28.23447 | 5570 ft | 6 kts | 27° |
| 2026-04-24 09:40 | -26.14550 | 28.23462 | 5570 ft | 10 kts | 15° |
| 2026-04-24 09:40 | -26.14367 | 28.23517 | 5572 ft | 54 kts | 16° |
| 2026-04-24 09:41 | -26.13825 | 28.23692 | 5566 ft | 108 kts | 17° |
| 2026-04-24 09:41 | -26.12943 | 28.23962 | 5554 ft | 154 kts | 15° |
| 2026-04-24 09:41 | -26.11870 | 28.24270 | 6075 ft | 156 kts | 14° |
| 2026-04-24 09:41 | -26.10805 | 28.24555 | 6699 ft | 159 kts | 13° |
| 2026-04-24 09:42 | -26.09649 | 28.24864 | 6977 ft | 184 kts | 14° |
| 2026-04-24 09:42 | -26.08312 | 28.25260 | 7241 ft | 213 kts | 13° |
| 2026-04-24 09:42 | -26.06773 | 28.25195 | 7645 ft | 234 kts | 343° |
| 2026-04-24 09:42 | -26.05353 | 28.24183 | 8131 ft | 258 kts | 313° |
| 2026-04-24 09:43 | -26.04538 | 28.22336 | 8680 ft | 281 kts | 283° |
| 2026-04-24 09:43 | -26.04272 | 28.20125 | 9324 ft | 293 kts | 281° |
| 2026-04-24 09:43 | -26.03739 | 28.17985 | 10443 ft | 282 kts | 295° |
| 2026-04-24 09:43 | -26.02629 | 28.16191 | 11195 ft | 289 kts | 317° |
| 2026-04-24 09:44 | -26.00915 | 28.14892 | 11548 ft | 310 kts | 330° |
| 2026-04-24 09:44 | -25.98938 | 28.13748 | 11880 ft | 330 kts | 332° |
| 2026-04-24 09:44 | -25.96831 | 28.12559 | 12227 ft | 348 kts | 332° |
| 2026-04-24 09:44 | -25.94644 | 28.11317 | 12734 ft | 358 kts | 332° |
| 2026-04-24 09:45 | -25.92406 | 28.10040 | 13412 ft | 364 kts | 332° |
| 2026-04-24 09:45 | -25.90143 | 28.08743 | 14149 ft | 368 kts | 331° |
| 2026-04-24 09:45 | -25.87880 | 28.07444 | 14742 ft | 373 kts | 331° |
| 2026-04-24 09:45 | -25.85564 | 28.06113 | 15371 ft | 376 kts | 331° |
| 2026-04-24 09:46 | -25.83236 | 28.04776 | 16038 ft | 378 kts | 331° |
| 2026-04-24 09:46 | -25.80894 | 28.03431 | 16706 ft | 381 kts | 331° |
| 2026-04-24 09:46 | -25.78532 | 28.02074 | 17351 ft | 384 kts | 331° |
| 2026-04-24 09:46 | -25.76152 | 28.00709 | 18020 ft | 387 kts | 331° |
| 2026-04-24 09:47 | -25.73751 | 27.99331 | 18666 ft | 390 kts | 331° |
| 2026-04-24 09:47 | -25.71329 | 27.97942 | 19206 ft | 394 kts | 331° |
| 2026-04-24 09:47 | -25.68888 | 27.96543 | 19780 ft | 396 kts | 331° |
| 2026-04-24 09:47 | -25.66434 | 27.95136 | 20363 ft | 399 kts | 330° |
| 2026-04-24 09:48 | -25.63962 | 27.93720 | 20955 ft | 401 kts | 330° |
| 2026-04-24 09:48 | -25.61473 | 27.92296 | 21543 ft | 404 kts | 330° |
| 2026-04-24 09:48 | -25.59023 | 27.90764 | 22125 ft | 405 kts | 325° |
| 2026-04-24 09:48 | -25.56804 | 27.88838 | 22712 ft | 406 kts | 315° |
| 2026-04-24 09:49 | -25.54950 | 27.86483 | 23304 ft | 408 kts | 305° |
| 2026-04-24 09:49 | -25.53404 | 27.83839 | 23912 ft | 410 kts | 301° |
| 2026-04-24 09:49 | -25.51966 | 27.81096 | 24413 ft | 413 kts | 299° |
| 2026-04-24 09:49 | -25.50573 | 27.78296 | 24942 ft | 416 kts | 298° |
| 2026-04-24 09:50 | -25.49187 | 27.75471 | 25487 ft | 419 kts | 298° |
| 2026-04-24 09:50 | -25.47789 | 27.72629 | 26027 ft | 422 kts | 298° |
| 2026-04-24 09:50 | -25.46372 | 27.69780 | 26531 ft | 424 kts | 298° |
| 2026-04-24 09:50 | -25.44932 | 27.66914 | 27086 ft | 427 kts | 299° |
| 2026-04-24 09:51 | -25.43499 | 27.64081 | 27596 ft | 429 kts | 299° |
| 2026-04-24 09:51 | -25.42011 | 27.61153 | 28097 ft | 432 kts | 299° |
| 2026-04-24 09:51 | -25.40549 | 27.58282 | 28580 ft | 435 kts | 299° |
| 2026-04-24 09:51 | -25.39058 | 27.55359 | 29053 ft | 438 kts | 299° |
| 2026-04-24 09:52 | -25.37561 | 27.52423 | 29520 ft | 440 kts | 299° |
| 2026-04-24 09:52 | -25.36051 | 27.49464 | 29980 ft | 443 kts | 299° |
| 2026-04-24 09:52 | -25.34533 | 27.46488 | 30418 ft | 446 kts | 299° |
| 2026-04-24 09:52 | -25.33002 | 27.43490 | 30723 ft | 449 kts | 299° |
| 2026-04-24 09:53 | -25.31465 | 27.40481 | 31213 ft | 448 kts | 298° |
| 2026-04-24 09:53 | -25.29936 | 27.37491 | 31700 ft | 447 kts | 298° |
| 2026-04-24 09:53 | -25.28406 | 27.34500 | 32115 ft | 447 kts | 298° |
| 2026-04-24 09:53 | -25.26873 | 27.31504 | 32502 ft | 448 kts | 298° |
| 2026-04-24 09:54 | -25.25856 | 27.29519 | 32748 ft | 448 kts | 298° |
| 2026-04-24 09:54 | -25.24320 | 27.26521 | 33200 ft | 446 kts | 298° |
| 2026-04-24 09:54 | -25.22799 | 27.23555 | 33804 ft | 442 kts | 298° |
| 2026-04-24 09:54 | -25.21292 | 27.20619 | 34397 ft | 436 kts | 298° |
| 2026-04-24 09:55 | -25.19362 | 27.16750 | 34942 ft | 433 kts | 296° |
| 2026-04-24 09:55 | -25.18463 | 27.14734 | 35119 ft | 434 kts | 295° |
| 2026-04-24 09:55 | -25.17195 | 27.11708 | 35381 ft | 434 kts | 294° |
| 2026-04-24 09:55 | -25.15957 | 27.08666 | 35689 ft | 434 kts | 293° |
| 2026-04-24 09:56 | -25.14714 | 27.05625 | 35983 ft | 434 kts | 293° |
| 2026-04-24 09:56 | -25.13459 | 27.02595 | 36280 ft | 434 kts | 294° |
| 2026-04-24 09:56 | -25.12188 | 26.99574 | 36569 ft | 434 kts | 294° |
| 2026-04-24 09:56 | -25.10907 | 26.96563 | 36857 ft | 433 kts | 294° |
| 2026-04-24 09:57 | -25.09203 | 26.92584 | 37210 ft | 433 kts | 294° |
| 2026-04-24 09:57 | -25.08331 | 26.90557 | 37393 ft | 433 kts | 294° |
| 2026-04-24 09:57 | -25.07039 | 26.87555 | 37648 ft | 433 kts | 294° |
| 2026-04-24 09:57 | -25.05746 | 26.84553 | 37946 ft | 433 kts | 294° |
| 2026-04-24 09:58 | -25.04458 | 26.81561 | 38219 ft | 432 kts | 294° |
| 2026-04-24 09:58 | -25.03169 | 26.78567 | 38467 ft | 432 kts | 294° |
| 2026-04-24 09:58 | -25.01882 | 26.75580 | 38709 ft | 431 kts | 293° |
| 2026-04-24 09:58 | -25.00595 | 26.72594 | 38952 ft | 431 kts | 293° |
| 2026-04-24 09:59 | -24.99309 | 26.69613 | 39130 ft | 431 kts | 293° |
| 2026-04-24 09:59 | -24.98021 | 26.66628 | 39312 ft | 431 kts | 293° |
| 2026-04-24 09:59 | -24.96736 | 26.63650 | 39464 ft | 431 kts | 293° |
| 2026-04-24 09:59 | -24.95448 | 26.60666 | 39651 ft | 431 kts | 293° |
| 2026-04-24 10:00 | -24.94160 | 26.57688 | 39809 ft | 430 kts | 293° |
| 2026-04-24 10:00 | -24.92891 | 26.54756 | 39983 ft | 429 kts | 293° |
| 2026-04-24 10:00 | -24.91607 | 26.51790 | 40179 ft | 428 kts | 293° |
| 2026-04-24 10:00 | -24.90322 | 26.48826 | 40275 ft | 429 kts | 293° |
| 2026-04-24 10:01 | -24.87752 | 26.42898 | 40286 ft | 429 kts | 293° |
| 2026-04-24 10:01 | -24.85180 | 26.36972 | 40288 ft | 429 kts | 293° |
| 2026-04-24 10:02 | -24.82608 | 26.31056 | 40282 ft | 429 kts | 293° |
| 2026-04-24 10:02 | -24.80031 | 26.25137 | 40300 ft | 429 kts | 293° |
| 2026-04-24 10:03 | -24.77448 | 26.19212 | 40287 ft | 430 kts | 293° |
| 2026-04-24 10:03 | -24.74862 | 26.13286 | 40287 ft | 430 kts | 293° |
| 2026-04-24 10:04 | -24.72273 | 26.07362 | 40287 ft | 429 kts | 293° |
| 2026-04-24 10:04 | -24.69772 | 26.01422 | 40288 ft | 427 kts | 291° |
| 2026-04-24 10:05 | -24.67552 | 25.95367 | 40283 ft | 427 kts | 290° |
| 2026-04-24 10:05 | -24.65355 | 25.89295 | 40283 ft | 427 kts | 290° |
| 2026-04-24 10:06 | -24.61981 | 25.80222 | 40285 ft | 428 kts | 290° |
| 2026-04-24 10:07 | -24.59707 | 25.74183 | 40288 ft | 428 kts | 290° |
| 2026-04-24 10:07 | -24.57430 | 25.68147 | 40281 ft | 428 kts | 290° |
| 2026-04-24 10:08 | -24.55152 | 25.62113 | 40257 ft | 428 kts | 290° |
| 2026-04-24 10:08 | -24.52873 | 25.56083 | 40276 ft | 427 kts | 290° |
| 2026-04-24 10:09 | -24.50612 | 25.50106 | 40267 ft | 427 kts | 290° |
| 2026-04-24 10:09 | -24.48335 | 25.44097 | 40269 ft | 426 kts | 290° |
| 2026-04-24 10:10 | -24.46055 | 25.38086 | 40257 ft | 426 kts | 290° |
| 2026-04-24 10:10 | -24.43771 | 25.32076 | 40267 ft | 426 kts | 290° |
| 2026-04-24 10:11 | -24.41483 | 25.26061 | 40252 ft | 427 kts | 290° |
| 2026-04-24 10:11 | -24.39186 | 25.20033 | 40251 ft | 428 kts | 290° |
| 2026-04-24 10:12 | -24.36887 | 25.14008 | 40244 ft | 428 kts | 290° |
| 2026-04-24 10:12 | -24.34589 | 25.07995 | 40235 ft | 427 kts | 290° |
| 2026-04-24 10:13 | -24.32301 | 25.02016 | 40239 ft | 424 kts | 290° |
| 2026-04-24 10:13 | -24.30016 | 24.96052 | 40232 ft | 425 kts | 290° |
| 2026-04-24 10:14 | -24.27740 | 24.90117 | 40232 ft | 425 kts | 290° |
| 2026-04-24 10:14 | -24.25445 | 24.84144 | 40232 ft | 425 kts | 290° |
| 2026-04-24 10:15 | -24.23147 | 24.78173 | 40223 ft | 425 kts | 290° |
| 2026-04-24 10:15 | -24.20617 | 24.72306 | 40223 ft | 428 kts | 298° |
| 2026-04-24 10:16 | -24.16869 | 24.67191 | 40222 ft | 437 kts | 312° |
| 2026-04-24 10:16 | -24.12283 | 24.62785 | 40203 ft | 439 kts | 314° |
| 2026-04-24 10:17 | -24.07578 | 24.58521 | 40219 ft | 439 kts | 314° |
| 2026-04-24 10:17 | -24.02876 | 24.54264 | 40213 ft | 438 kts | 314° |
| 2026-04-24 10:18 | -23.98193 | 24.49991 | 40205 ft | 438 kts | 314° |
| 2026-04-24 10:18 | -23.93517 | 24.45709 | 40185 ft | 438 kts | 314° |
| 2026-04-24 10:19 | -23.88870 | 24.41457 | 40177 ft | 438 kts | 314° |
| 2026-04-24 10:19 | -23.84202 | 24.37190 | 40195 ft | 437 kts | 314° |
| 2026-04-24 10:20 | -23.79534 | 24.32929 | 40187 ft | 437 kts | 314° |
| 2026-04-24 10:20 | -23.74859 | 24.28664 | 40184 ft | 438 kts | 314° |
| 2026-04-24 10:21 | -23.70185 | 24.24407 | 40177 ft | 438 kts | 314° |
| 2026-04-24 10:21 | -23.65509 | 24.20150 | 40175 ft | 438 kts | 314° |
| 2026-04-24 10:22 | -23.60835 | 24.15901 | 40173 ft | 437 kts | 314° |
| 2026-04-24 10:22 | -23.56170 | 24.11663 | 40169 ft | 436 kts | 314° |
| 2026-04-24 10:23 | -23.51510 | 24.07434 | 40163 ft | 436 kts | 314° |
| 2026-04-24 10:23 | -23.46847 | 24.03205 | 40163 ft | 436 kts | 314° |
| 2026-04-24 10:24 | -23.42172 | 23.98969 | 40152 ft | 437 kts | 314° |
| 2026-04-24 10:24 | -23.37494 | 23.94736 | 40153 ft | 437 kts | 314° |
| 2026-04-24 10:25 | -23.32850 | 23.90538 | 40152 ft | 437 kts | 314° |
| 2026-04-24 10:25 | -23.28176 | 23.86316 | 40145 ft | 437 kts | 314° |
| 2026-04-24 10:26 | -23.23503 | 23.82098 | 40150 ft | 437 kts | 314° |
| 2026-04-24 10:26 | -23.18822 | 23.77878 | 40147 ft | 437 kts | 314° |
| 2026-04-24 10:27 | -23.14145 | 23.73665 | 40146 ft | 437 kts | 314° |
| 2026-04-24 10:27 | -23.09464 | 23.69453 | 40154 ft | 437 kts | 314° |
| 2026-04-24 10:28 | -23.04785 | 23.65247 | 40141 ft | 436 kts | 314° |
| 2026-04-24 10:28 | -23.00113 | 23.61050 | 40131 ft | 436 kts | 314° |
| 2026-04-24 10:29 | -22.95436 | 23.56853 | 40149 ft | 436 kts | 314° |
| 2026-04-24 10:29 | -22.90755 | 23.52656 | 40133 ft | 436 kts | 314° |
| 2026-04-24 10:30 | -22.86079 | 23.48468 | 40129 ft | 436 kts | 313° |
| 2026-04-24 10:30 | -22.81440 | 23.44318 | 40135 ft | 434 kts | 313° |
| 2026-04-24 10:31 | -22.76779 | 23.40150 | 40134 ft | 435 kts | 313° |
| 2026-04-24 10:31 | -22.72109 | 23.35977 | 40130 ft | 436 kts | 313° |
| 2026-04-24 10:32 | -22.67430 | 23.31800 | 40126 ft | 436 kts | 313° |
| 2026-04-24 10:32 | -22.62749 | 23.27628 | 40127 ft | 436 kts | 313° |
| 2026-04-24 10:33 | -22.58070 | 23.23461 | 40122 ft | 434 kts | 313° |
| 2026-04-24 10:33 | -22.53414 | 23.19320 | 40124 ft | 432 kts | 313° |
| 2026-04-24 10:34 | -22.48773 | 23.15191 | 40125 ft | 432 kts | 313° |
| 2026-04-24 10:34 | -22.44127 | 23.11062 | 40124 ft | 432 kts | 313° |
| 2026-04-24 10:35 | -22.39477 | 23.06933 | 40124 ft | 433 kts | 313° |
| 2026-04-24 10:35 | -22.34815 | 23.02798 | 40124 ft | 434 kts | 313° |
| 2026-04-24 10:36 | -22.30157 | 22.98674 | 40123 ft | 431 kts | 313° |
| 2026-04-24 10:36 | -22.25521 | 22.94572 | 40121 ft | 430 kts | 313° |
| 2026-04-24 10:37 | -22.20894 | 22.90478 | 40122 ft | 430 kts | 313° |
| 2026-04-24 10:37 | -22.16262 | 22.86383 | 40121 ft | 430 kts | 313° |
| 2026-04-24 10:38 | -22.11662 | 22.82321 | 40119 ft | 430 kts | 313° |
| 2026-04-24 10:38 | -22.07032 | 22.78237 | 40106 ft | 430 kts | 313° |
| 2026-04-24 10:39 | -22.02397 | 22.74152 | 40121 ft | 430 kts | 313° |
| 2026-04-24 10:39 | -21.97761 | 22.70069 | 40118 ft | 430 kts | 313° |
| 2026-04-24 10:40 | -21.93122 | 22.65988 | 40119 ft | 431 kts | 313° |
| 2026-04-24 10:40 | -21.88482 | 22.61909 | 40118 ft | 431 kts | 313° |
| 2026-04-24 10:41 | -21.83843 | 22.57835 | 40115 ft | 431 kts | 313° |
| 2026-04-24 10:41 | -21.79953 | 22.54421 | 40104 ft | 431 kts | 313° |
| 2026-04-24 10:42 | -21.75331 | 22.50367 | 40116 ft | 432 kts | 313° |
| 2026-04-24 10:42 | -21.70667 | 22.46280 | 40117 ft | 432 kts | 313° |
| 2026-04-24 10:43 | -21.66005 | 22.42199 | 40110 ft | 432 kts | 313° |
| 2026-04-24 10:43 | -21.61338 | 22.38118 | 40115 ft | 432 kts | 313° |
| 2026-04-24 10:44 | -21.56671 | 22.34039 | 40111 ft | 433 kts | 313° |
| 2026-04-24 10:44 | -21.52002 | 22.29963 | 40110 ft | 433 kts | 313° |
| 2026-04-24 10:45 | -21.47314 | 22.25871 | 40111 ft | 435 kts | 313° |
| 2026-04-24 10:45 | -21.42611 | 22.21772 | 40113 ft | 435 kts | 314° |
| 2026-04-24 10:46 | -21.37908 | 22.17677 | 40107 ft | 435 kts | 314° |
| 2026-04-24 10:46 | -21.33233 | 22.13609 | 40109 ft | 435 kts | 314° |
| 2026-04-24 10:47 | -21.28525 | 22.09517 | 40113 ft | 436 kts | 314° |
| 2026-04-24 10:47 | -21.23815 | 22.05424 | 40101 ft | 437 kts | 314° |
| 2026-04-24 10:48 | -21.19089 | 22.01321 | 40100 ft | 438 kts | 314° |
| 2026-04-24 10:48 | -21.14352 | 21.97214 | 40104 ft | 438 kts | 314° |
| 2026-04-24 10:49 | -21.09621 | 21.93111 | 40102 ft | 438 kts | 314° |
| 2026-04-24 10:49 | -21.04895 | 21.88989 | 40101 ft | 438 kts | 314° |
| 2026-04-24 10:50 | -21.00174 | 21.84869 | 40099 ft | 438 kts | 314° |
| 2026-04-24 10:50 | -20.95442 | 21.80747 | 40093 ft | 439 kts | 314° |
| 2026-04-24 10:51 | -20.90690 | 21.76613 | 40097 ft | 443 kts | 313° |
| 2026-04-24 10:51 | -20.85894 | 21.72443 | 40092 ft | 445 kts | 313° |
| 2026-04-24 10:52 | -20.81113 | 21.68295 | 40088 ft | 445 kts | 313° |
| 2026-04-24 10:52 | -20.76304 | 21.64126 | 40086 ft | 445 kts | 313° |
| 2026-04-24 10:53 | -20.71496 | 21.59956 | 40089 ft | 445 kts | 313° |
| 2026-04-24 10:53 | -20.66690 | 21.55788 | 40089 ft | 445 kts | 313° |
| 2026-04-24 10:54 | -20.61878 | 21.51618 | 40085 ft | 445 kts | 313° |
| 2026-04-24 10:54 | -20.57067 | 21.47452 | 40084 ft | 445 kts | 313° |
| 2026-04-24 10:55 | -20.52256 | 21.43290 | 40083 ft | 445 kts | 313° |
| 2026-04-24 10:55 | -20.47441 | 21.39129 | 40084 ft | 445 kts | 313° |
| 2026-04-24 10:56 | -20.42625 | 21.34970 | 40058 ft | 445 kts | 314° |
| 2026-04-24 10:56 | -20.37791 | 21.30796 | 40076 ft | 448 kts | 314° |
| 2026-04-24 10:57 | -20.32936 | 21.26611 | 40080 ft | 449 kts | 314° |
| 2026-04-24 10:57 | -20.28078 | 21.22427 | 40073 ft | 449 kts | 314° |
| 2026-04-24 10:58 | -20.23219 | 21.18246 | 40079 ft | 449 kts | 314° |
| 2026-04-24 10:58 | -20.18356 | 21.14073 | 40075 ft | 449 kts | 314° |
| 2026-04-24 10:59 | -20.13483 | 21.09916 | 40056 ft | 449 kts | 314° |
| 2026-04-24 10:59 | -20.08588 | 21.05743 | 40070 ft | 452 kts | 314° |
| 2026-04-24 11:00 | -20.03675 | 21.01559 | 40069 ft | 453 kts | 314° |
| 2026-04-24 11:00 | -19.98782 | 20.97351 | 40068 ft | 452 kts | 313° |
| 2026-04-24 11:01 | -19.93993 | 20.93038 | 40068 ft | 451 kts | 312° |
| 2026-04-24 11:01 | -19.89248 | 20.88740 | 40086 ft | 451 kts | 313° |
| 2026-04-24 11:02 | -19.84454 | 20.84433 | 40074 ft | 452 kts | 313° |
| 2026-04-24 11:02 | -19.79627 | 20.80117 | 40077 ft | 454 kts | 313° |
| 2026-04-24 11:03 | -19.74788 | 20.75799 | 40072 ft | 454 kts | 313° |
| 2026-04-24 11:03 | -19.69949 | 20.71486 | 40073 ft | 454 kts | 313° |
| 2026-04-24 11:04 | -19.65110 | 20.67174 | 40071 ft | 454 kts | 313° |
| 2026-04-24 11:04 | -19.60273 | 20.62866 | 40069 ft | 454 kts | 313° |
| 2026-04-24 11:05 | -19.55465 | 20.58588 | 40065 ft | 455 kts | 313° |
| 2026-04-24 11:05 | -19.50609 | 20.54269 | 40069 ft | 456 kts | 313° |
| 2026-04-24 11:06 | -19.45748 | 20.49951 | 40072 ft | 456 kts | 313° |
| 2026-04-24 11:06 | -19.40878 | 20.45630 | 40072 ft | 456 kts | 313° |
| 2026-04-24 11:07 | -19.33578 | 20.39158 | 40065 ft | 456 kts | 313° |
| 2026-04-24 11:07 | -19.28715 | 20.34850 | 40043 ft | 456 kts | 313° |
| 2026-04-24 11:08 | -19.23840 | 20.30533 | 40063 ft | 458 kts | 313° |
| 2026-04-24 11:08 | -19.18949 | 20.26207 | 40063 ft | 459 kts | 314° |
| 2026-04-24 11:09 | -19.14052 | 20.21881 | 40054 ft | 459 kts | 314° |
| 2026-04-24 11:09 | -19.09149 | 20.17552 | 40057 ft | 459 kts | 314° |
| 2026-04-24 11:10 | -19.04252 | 20.13231 | 40056 ft | 459 kts | 313° |
| 2026-04-24 11:10 | -18.99352 | 20.08912 | 40033 ft | 458 kts | 314° |
| 2026-04-24 11:11 | -18.94473 | 20.04612 | 40051 ft | 461 kts | 314° |
| 2026-04-24 11:11 | -18.89545 | 20.00274 | 40042 ft | 461 kts | 314° |
| 2026-04-24 11:12 | -18.84612 | 19.95937 | 40042 ft | 462 kts | 314° |
| 2026-04-24 11:12 | -18.79676 | 19.91600 | 40037 ft | 461 kts | 314° |
| 2026-04-24 11:13 | -18.74741 | 19.87266 | 40037 ft | 461 kts | 314° |
| 2026-04-24 11:13 | -18.69805 | 19.82936 | 40016 ft | 461 kts | 314° |
| 2026-04-24 11:14 | -18.64860 | 19.78601 | 40022 ft | 463 kts | 314° |
| 2026-04-24 11:14 | -18.59897 | 19.74254 | 40026 ft | 464 kts | 314° |
| 2026-04-24 11:15 | -18.54921 | 19.69901 | 40025 ft | 464 kts | 314° |
| 2026-04-24 11:15 | -18.49947 | 19.65553 | 40027 ft | 464 kts | 314° |
| 2026-04-24 11:16 | -18.44971 | 19.61206 | 40020 ft | 465 kts | 314° |
| 2026-04-24 11:16 | -18.40027 | 19.56891 | 40013 ft | 465 kts | 314° |
| 2026-04-24 11:17 | -18.35043 | 19.52542 | 40015 ft | 466 kts | 314° |
| 2026-04-24 11:17 | -18.30050 | 19.48190 | 40016 ft | 466 kts | 314° |
| 2026-04-24 11:18 | -18.25107 | 19.43782 | 40016 ft | 464 kts | 312° |
| 2026-04-24 11:18 | -18.20348 | 19.39201 | 40010 ft | 464 kts | 311° |
| 2026-04-24 11:19 | -18.15601 | 19.34599 | 40007 ft | 464 kts | 312° |
| 2026-04-24 11:19 | -18.10829 | 19.30028 | 39996 ft | 464 kts | 312° |
| 2026-04-24 11:20 | -18.06031 | 19.25466 | 40004 ft | 466 kts | 312° |
| 2026-04-24 11:20 | -18.01215 | 19.20897 | 40004 ft | 466 kts | 312° |
| 2026-04-24 11:21 | -17.96398 | 19.16330 | 39996 ft | 466 kts | 312° |
| 2026-04-24 11:21 | -17.91580 | 19.11764 | 39993 ft | 466 kts | 312° |
| 2026-04-24 11:22 | -17.86762 | 19.07201 | 39990 ft | 466 kts | 313° |
| 2026-04-24 11:22 | -17.81945 | 19.02641 | 39990 ft | 466 kts | 313° |
| 2026-04-24 11:23 | -17.77111 | 18.98093 | 39988 ft | 466 kts | 313° |
| 2026-04-24 11:23 | -17.72271 | 18.93558 | 39988 ft | 466 kts | 313° |
| 2026-04-24 11:24 | -17.67432 | 18.89025 | 39988 ft | 466 kts | 313° |
| 2026-04-24 11:24 | -17.62627 | 18.84523 | 39988 ft | 466 kts | 313° |
| 2026-04-24 11:25 | -17.57789 | 18.79992 | 39988 ft | 466 kts | 313° |
| 2026-04-24 11:25 | -17.52949 | 18.75461 | 39991 ft | 466 kts | 313° |
| 2026-04-24 11:26 | -17.48104 | 18.70931 | 39985 ft | 468 kts | 313° |
| 2026-04-24 11:26 | -17.43238 | 18.66385 | 39985 ft | 469 kts | 313° |
| 2026-04-24 11:27 | -17.38368 | 18.61839 | 39985 ft | 469 kts | 313° |
| 2026-04-24 11:27 | -17.33498 | 18.57297 | 39985 ft | 469 kts | 313° |
| 2026-04-24 11:28 | -17.28629 | 18.52758 | 39982 ft | 469 kts | 313° |
| 2026-04-24 11:28 | -17.24575 | 18.48981 | 39979 ft | 469 kts | 313° |
| 2026-04-24 11:29 | -17.19702 | 18.44444 | 39976 ft | 469 kts | 313° |
| 2026-04-24 11:29 | -17.14812 | 18.39893 | 39973 ft | 471 kts | 314° |
| 2026-04-24 11:30 | -17.09903 | 18.35330 | 39977 ft | 472 kts | 314° |
| 2026-04-24 11:30 | -17.04993 | 18.30771 | 39977 ft | 472 kts | 314° |
| 2026-04-24 11:31 | -17.00086 | 18.26216 | 39971 ft | 472 kts | 314° |
| 2026-04-24 11:31 | -16.95207 | 18.21691 | 39971 ft | 472 kts | 314° |
| 2026-04-24 11:32 | -16.90302 | 18.17145 | 39959 ft | 472 kts | 314° |
| 2026-04-24 11:32 | -16.85387 | 18.12591 | 39967 ft | 473 kts | 314° |
| 2026-04-24 11:33 | -16.80459 | 18.08030 | 39965 ft | 473 kts | 314° |
| 2026-04-24 11:33 | -16.75530 | 18.03471 | 39964 ft | 473 kts | 314° |
| 2026-04-24 11:34 | -16.70601 | 17.98916 | 39961 ft | 473 kts | 314° |
| 2026-04-24 11:34 | -16.65670 | 17.94362 | 39957 ft | 473 kts | 314° |
| 2026-04-24 11:35 | -16.60734 | 17.89807 | 39954 ft | 473 kts | 314° |
| 2026-04-24 11:35 | -16.55798 | 17.85254 | 39966 ft | 474 kts | 314° |
| 2026-04-24 11:36 | -16.50849 | 17.80693 | 39958 ft | 474 kts | 314° |
| 2026-04-24 11:36 | -16.45903 | 17.76138 | 39951 ft | 474 kts | 314° |
| 2026-04-24 11:37 | -16.40958 | 17.71587 | 39954 ft | 475 kts | 314° |
| 2026-04-24 11:37 | -16.36078 | 17.66996 | 39948 ft | 474 kts | 314° |
| 2026-04-24 11:38 | -16.31114 | 17.62464 | 39945 ft | 475 kts | 314° |
| 2026-04-24 11:38 | -16.26138 | 17.57934 | 39943 ft | 475 kts | 315° |
| 2026-04-24 11:39 | -16.21198 | 17.53429 | 39950 ft | 475 kts | 315° |
| 2026-04-24 11:39 | -16.16231 | 17.48882 | 39941 ft | 475 kts | 315° |
| 2026-04-24 11:40 | -16.11267 | 17.44333 | 39946 ft | 475 kts | 315° |
| 2026-04-24 11:40 | -16.06305 | 17.39787 | 39947 ft | 475 kts | 315° |
| 2026-04-24 11:41 | -16.01342 | 17.35244 | 39945 ft | 475 kts | 315° |
| 2026-04-24 11:41 | -15.96373 | 17.30700 | 39950 ft | 475 kts | 315° |
| 2026-04-24 11:42 | -15.91407 | 17.26162 | 39950 ft | 475 kts | 315° |
| 2026-04-24 11:42 | -15.86437 | 17.21624 | 39950 ft | 475 kts | 315° |
| 2026-04-24 11:43 | -15.81467 | 17.17088 | 39950 ft | 475 kts | 315° |
| 2026-04-24 11:43 | -15.76499 | 17.12557 | 39950 ft | 475 kts | 315° |
| 2026-04-24 11:44 | -15.71563 | 17.08058 | 39942 ft | 475 kts | 315° |
| 2026-04-24 11:44 | -15.66589 | 17.03527 | 39951 ft | 476 kts | 316° |
| 2026-04-24 11:45 | -15.61607 | 16.98991 | 39953 ft | 477 kts | 316° |
| 2026-04-24 11:45 | -15.56610 | 16.94447 | 39954 ft | 478 kts | 316° |
| 2026-04-24 11:46 | -15.51610 | 16.89903 | 39958 ft | 478 kts | 316° |
| 2026-04-24 11:46 | -15.46607 | 16.85358 | 39959 ft | 478 kts | 316° |
| 2026-04-24 11:47 | -15.41606 | 16.80820 | 39954 ft | 478 kts | 316° |
| 2026-04-24 11:47 | -15.36604 | 16.76282 | 39962 ft | 478 kts | 316° |
| 2026-04-24 11:48 | -15.31596 | 16.71741 | 39957 ft | 479 kts | 316° |
| 2026-04-24 11:48 | -15.26566 | 16.67184 | 39959 ft | 480 kts | 316° |
| 2026-04-24 11:49 | -15.21571 | 16.62663 | 39960 ft | 480 kts | 316° |
| 2026-04-24 11:49 | -15.16535 | 16.58106 | 39961 ft | 480 kts | 316° |
| 2026-04-24 11:50 | -15.11501 | 16.53556 | 39959 ft | 480 kts | 316° |
| 2026-04-24 11:50 | -15.06469 | 16.49009 | 39959 ft | 480 kts | 316° |
| 2026-04-24 11:51 | -15.01432 | 16.44461 | 39967 ft | 481 kts | 316° |
| 2026-04-24 11:51 | -14.96388 | 16.39909 | 39967 ft | 482 kts | 316° |
| 2026-04-24 11:52 | -14.91338 | 16.35356 | 39961 ft | 482 kts | 316° |
| 2026-04-24 11:52 | -14.86286 | 16.30803 | 39966 ft | 482 kts | 317° |
| 2026-04-24 11:53 | -14.81234 | 16.26253 | 39965 ft | 482 kts | 317° |
| 2026-04-24 11:53 | -14.76184 | 16.21708 | 39970 ft | 481 kts | 317° |
| 2026-04-24 11:54 | -14.71129 | 16.17162 | 39969 ft | 482 kts | 317° |
| 2026-04-24 11:54 | -14.66078 | 16.12621 | 39970 ft | 482 kts | 317° |
| 2026-04-24 11:55 | -14.61024 | 16.08082 | 39964 ft | 482 kts | 317° |
| 2026-04-24 11:55 | -14.55967 | 16.03542 | 39960 ft | 482 kts | 317° |
| 2026-04-24 11:56 | -14.50910 | 15.99005 | 39971 ft | 482 kts | 317° |
| 2026-04-24 11:56 | -14.45857 | 15.94475 | 39963 ft | 481 kts | 317° |
| 2026-04-24 11:57 | -14.40841 | 15.89980 | 39946 ft | 481 kts | 317° |
| 2026-04-24 11:57 | -14.35790 | 15.85457 | 39951 ft | 481 kts | 317° |
| 2026-04-24 11:58 | -14.30735 | 15.80933 | 39954 ft | 481 kts | 317° |
| 2026-04-24 11:58 | -14.25681 | 15.76413 | 39941 ft | 481 kts | 317° |
| 2026-04-24 11:59 | -14.20621 | 15.71891 | 39943 ft | 481 kts | 317° |
| 2026-04-24 11:59 | -14.15565 | 15.67374 | 39940 ft | 481 kts | 317° |
| 2026-04-24 12:00 | -14.10504 | 15.62856 | 39942 ft | 481 kts | 317° |
| 2026-04-24 12:00 | -14.05445 | 15.58342 | 39931 ft | 481 kts | 317° |
| 2026-04-24 12:01 | -14.00372 | 15.53819 | 39935 ft | 483 kts | 317° |
| 2026-04-24 12:01 | -13.95291 | 15.49291 | 39941 ft | 483 kts | 317° |
| 2026-04-24 12:02 | -13.90240 | 15.44794 | 39936 ft | 483 kts | 317° |
| 2026-04-24 12:02 | -13.85156 | 15.40270 | 39937 ft | 483 kts | 317° |
| 2026-04-24 12:03 | -13.80075 | 15.35750 | 39935 ft | 483 kts | 317° |
| 2026-04-24 12:03 | -13.74990 | 15.31230 | 39939 ft | 483 kts | 317° |
| 2026-04-24 12:04 | -13.69904 | 15.26711 | 39941 ft | 484 kts | 317° |
| 2026-04-24 12:04 | -13.64804 | 15.22182 | 39937 ft | 484 kts | 317° |
| 2026-04-24 12:05 | -13.59701 | 15.17654 | 39943 ft | 484 kts | 317° |
| 2026-04-24 12:05 | -13.54598 | 15.13129 | 39940 ft | 484 kts | 317° |
| 2026-04-24 12:06 | -13.49495 | 15.08606 | 39946 ft | 484 kts | 317° |
| 2026-04-24 12:06 | -13.44394 | 15.04088 | 39942 ft | 484 kts | 318° |
| 2026-04-24 12:07 | -13.39291 | 14.99570 | 39938 ft | 484 kts | 318° |
| 2026-04-24 12:07 | -13.34174 | 14.95043 | 39942 ft | 486 kts | 318° |
| 2026-04-24 12:08 | -13.29046 | 14.90508 | 39924 ft | 487 kts | 318° |
| 2026-04-24 12:08 | -13.23915 | 14.85974 | 39931 ft | 487 kts | 318° |
| 2026-04-24 12:09 | -13.18784 | 14.81442 | 39925 ft | 487 kts | 318° |
| 2026-04-24 12:09 | -13.13682 | 14.76938 | 39921 ft | 486 kts | 318° |
| 2026-04-24 12:10 | -13.08545 | 14.72406 | 39924 ft | 487 kts | 318° |
| 2026-04-24 12:11 | -13.00830 | 14.65604 | 39926 ft | 489 kts | 319° |
| 2026-04-24 12:11 | -12.95659 | 14.61050 | 39918 ft | 490 kts | 319° |
| 2026-04-24 12:12 | -12.90489 | 14.56498 | 39918 ft | 490 kts | 319° |
| 2026-04-24 12:12 | -12.85311 | 14.51942 | 39921 ft | 490 kts | 319° |
| 2026-04-24 12:13 | -12.80141 | 14.47395 | 39912 ft | 490 kts | 319° |
| 2026-04-24 12:13 | -12.74965 | 14.42845 | 39914 ft | 490 kts | 319° |
| 2026-04-24 12:14 | -12.69784 | 14.38293 | 39918 ft | 491 kts | 319° |
| 2026-04-24 12:14 | -12.64781 | 14.33518 | 39916 ft | 492 kts | 315° |
| 2026-04-24 12:15 | -12.59963 | 14.28602 | 39914 ft | 492 kts | 315° |
| 2026-04-24 12:15 | -12.55088 | 14.23674 | 39913 ft | 493 kts | 315° |
| 2026-04-24 12:16 | -12.50172 | 14.18777 | 39914 ft | 493 kts | 316° |
| 2026-04-24 12:16 | -12.45255 | 14.13908 | 39913 ft | 492 kts | 316° |
| 2026-04-24 12:17 | -12.41171 | 14.09870 | 39910 ft | 491 kts | 316° |
| 2026-04-24 12:17 | -12.36250 | 14.05002 | 39912 ft | 494 kts | 316° |
| 2026-04-24 12:18 | -12.31300 | 14.00107 | 39908 ft | 496 kts | 316° |
| 2026-04-24 12:18 | -12.26335 | 13.95200 | 39908 ft | 496 kts | 316° |
| 2026-04-24 12:19 | -12.21370 | 13.90295 | 39892 ft | 496 kts | 316° |
| 2026-04-24 12:19 | -12.16417 | 13.85406 | 39897 ft | 495 kts | 316° |
| 2026-04-24 12:20 | -12.11466 | 13.80521 | 39890 ft | 494 kts | 316° |
| 2026-04-24 12:20 | -12.06514 | 13.75634 | 39877 ft | 495 kts | 316° |
| 2026-04-24 12:21 | -12.01562 | 13.70753 | 39883 ft | 495 kts | 316° |
| 2026-04-24 12:21 | -11.96612 | 13.65875 | 39877 ft | 494 kts | 316° |
| 2026-04-24 12:22 | -11.91664 | 13.61003 | 39873 ft | 494 kts | 317° |
| 2026-04-24 12:22 | -11.86711 | 13.56128 | 39872 ft | 494 kts | 317° |
| 2026-04-24 12:23 | -11.81756 | 13.51254 | 39867 ft | 495 kts | 317° |
| 2026-04-24 12:23 | -11.76796 | 13.46377 | 39867 ft | 494 kts | 317° |
| 2026-04-24 12:24 | -11.71842 | 13.41510 | 39864 ft | 494 kts | 316° |
| 2026-04-24 12:24 | -11.66883 | 13.36640 | 39867 ft | 495 kts | 317° |
| 2026-04-24 12:25 | -11.61925 | 13.31770 | 39870 ft | 495 kts | 317° |
| 2026-04-24 12:25 | -11.56989 | 13.26932 | 39867 ft | 496 kts | 317° |
| 2026-04-24 12:26 | -11.52022 | 13.22066 | 39869 ft | 495 kts | 317° |
| 2026-04-24 12:26 | -11.47051 | 13.17199 | 39862 ft | 495 kts | 317° |
| 2026-04-24 12:27 | -11.42090 | 13.12342 | 39868 ft | 495 kts | 317° |
| 2026-04-24 12:27 | -11.37122 | 13.07479 | 39869 ft | 496 kts | 317° |
| 2026-04-24 12:28 | -11.32144 | 13.02610 | 39870 ft | 496 kts | 317° |
| 2026-04-24 12:28 | -11.27172 | 12.97750 | 39872 ft | 495 kts | 317° |
| 2026-04-24 12:29 | -11.22205 | 12.92896 | 39870 ft | 495 kts | 317° |
| 2026-04-24 12:29 | -11.17235 | 12.88043 | 39872 ft | 495 kts | 317° |
| 2026-04-24 12:30 | -11.12380 | 12.83053 | 39870 ft | 497 kts | 313° |
| 2026-04-24 12:30 | -11.07886 | 12.77697 | 39872 ft | 497 kts | 310° |
| 2026-04-24 12:31 | -11.03427 | 12.72327 | 39862 ft | 495 kts | 311° |
| 2026-04-24 12:31 | -10.98919 | 12.67024 | 39872 ft | 496 kts | 312° |
| 2026-04-24 12:32 | -10.94372 | 12.61745 | 39875 ft | 495 kts | 312° |
| 2026-04-24 12:32 | -10.89831 | 12.56488 | 39871 ft | 495 kts | 312° |
| 2026-04-24 12:33 | -10.85288 | 12.51228 | 39869 ft | 495 kts | 312° |
| 2026-04-24 12:33 | -10.80739 | 12.45959 | 39869 ft | 495 kts | 312° |
| 2026-04-24 12:34 | -10.76191 | 12.40693 | 39871 ft | 496 kts | 312° |
| 2026-04-24 12:34 | -10.71638 | 12.35424 | 39872 ft | 496 kts | 313° |
| 2026-04-24 12:35 | -10.67078 | 12.30150 | 39865 ft | 496 kts | 312° |
| 2026-04-24 12:35 | -10.62527 | 12.24888 | 39874 ft | 496 kts | 312° |
| 2026-04-24 12:36 | -10.57975 | 12.19628 | 39874 ft | 495 kts | 312° |
| 2026-04-24 12:36 | -10.53428 | 12.14379 | 39860 ft | 494 kts | 312° |
| 2026-04-24 12:37 | -10.48406 | 12.09627 | 39866 ft | 493 kts | 321° |
| 2026-04-24 12:37 | -10.43119 | 12.05165 | 39873 ft | 494 kts | 322° |
| 2026-04-24 12:38 | -10.37821 | 12.00777 | 39875 ft | 495 kts | 322° |
| 2026-04-24 12:38 | -10.32482 | 11.96353 | 39871 ft | 495 kts | 321° |
| 2026-04-24 12:39 | -10.21840 | 11.87502 | 39864 ft | 494 kts | 321° |
| 2026-04-24 12:40 | -10.16521 | 11.83077 | 39870 ft | 494 kts | 321° |
| 2026-04-24 12:40 | -10.11203 | 11.78656 | 39870 ft | 494 kts | 321° |
| 2026-04-24 12:41 | -10.05886 | 11.74238 | 39871 ft | 494 kts | 321° |
| 2026-04-24 12:41 | -10.00568 | 11.69822 | 39866 ft | 494 kts | 321° |
| 2026-04-24 12:42 | -9.95286 | 11.65436 | 39873 ft | 494 kts | 322° |
| 2026-04-24 12:42 | -9.89963 | 11.61020 | 39860 ft | 494 kts | 322° |
| 2026-04-24 12:43 | -9.84635 | 11.56600 | 39865 ft | 494 kts | 322° |
| 2026-04-24 12:43 | -9.79309 | 11.52185 | 39870 ft | 494 kts | 322° |
| 2026-04-24 12:44 | -9.73982 | 11.47770 | 39863 ft | 494 kts | 322° |
| 2026-04-24 12:44 | -9.68654 | 11.43356 | 39866 ft | 494 kts | 322° |
| 2026-04-24 12:45 | -9.63352 | 11.38913 | 39860 ft | 495 kts | 318° |
| 2026-04-24 12:45 | -9.58399 | 11.34074 | 39863 ft | 494 kts | 316° |
| 2026-04-24 12:46 | -9.53531 | 11.29159 | 39862 ft | 494 kts | 316° |
| 2026-04-24 12:46 | -9.48671 | 11.24227 | 39869 ft | 495 kts | 316° |
| 2026-04-24 12:47 | -9.43803 | 11.19297 | 39871 ft | 495 kts | 316° |
| 2026-04-24 12:47 | -9.38923 | 11.14367 | 39873 ft | 495 kts | 316° |
| 2026-04-24 12:48 | -9.34079 | 11.09477 | 39857 ft | 495 kts | 316° |
| 2026-04-24 12:48 | -9.29203 | 11.04557 | 39862 ft | 495 kts | 316° |
| 2026-04-24 12:49 | -9.24324 | 10.99636 | 39869 ft | 495 kts | 316° |
| 2026-04-24 12:49 | -9.19447 | 10.94718 | 39867 ft | 495 kts | 316° |
| 2026-04-24 12:50 | -9.14561 | 10.89793 | 39856 ft | 495 kts | 316° |
| 2026-04-24 12:50 | -9.09676 | 10.84872 | 39865 ft | 495 kts | 316° |
| 2026-04-24 12:51 | -9.04794 | 10.79955 | 39857 ft | 495 kts | 316° |
| 2026-04-24 12:51 | -8.99909 | 10.75037 | 39864 ft | 495 kts | 316° |
| 2026-04-24 12:52 | -8.95028 | 10.70126 | 39857 ft | 495 kts | 316° |
| 2026-04-24 12:52 | -8.90173 | 10.65242 | 39865 ft | 496 kts | 316° |
| 2026-04-24 12:53 | -8.85278 | 10.60321 | 39872 ft | 496 kts | 316° |
| 2026-04-24 12:53 | -8.80383 | 10.55401 | 39874 ft | 496 kts | 316° |
| 2026-04-24 12:54 | -8.75487 | 10.50482 | 39864 ft | 496 kts | 316° |
| 2026-04-24 12:54 | -8.70588 | 10.45562 | 39875 ft | 496 kts | 316° |
| 2026-04-24 12:55 | -8.65684 | 10.40639 | 39874 ft | 496 kts | 316° |
| 2026-04-24 12:55 | -8.60783 | 10.35721 | 39862 ft | 496 kts | 316° |
| 2026-04-24 12:56 | -8.55873 | 10.30796 | 39865 ft | 497 kts | 316° |
| 2026-04-24 12:56 | -8.50947 | 10.25858 | 39864 ft | 500 kts | 316° |
| 2026-04-24 12:57 | -8.46043 | 10.20942 | 39866 ft | 500 kts | 316° |
| 2026-04-24 12:57 | -8.41116 | 10.16005 | 39863 ft | 497 kts | 316° |
| 2026-04-24 12:58 | -8.36207 | 10.11088 | 39864 ft | 496 kts | 316° |
| 2026-04-24 12:58 | -8.31309 | 10.06184 | 39864 ft | 496 kts | 316° |
| 2026-04-24 12:59 | -8.26413 | 10.01285 | 39864 ft | 496 kts | 316° |
| 2026-04-24 12:59 | -8.21518 | 9.96387 | 39865 ft | 495 kts | 316° |
| 2026-04-24 13:00 | -8.16626 | 9.91495 | 39865 ft | 494 kts | 316° |
| 2026-04-24 13:00 | -8.11741 | 9.86610 | 39868 ft | 494 kts | 316° |
| 2026-04-24 13:01 | -8.06859 | 9.81731 | 39863 ft | 494 kts | 316° |
| 2026-04-24 13:01 | -8.02797 | 9.77673 | 39861 ft | 494 kts | 316° |
| 2026-04-24 13:02 | -7.97124 | 9.72008 | 39862 ft | 494 kts | 317° |
| 2026-04-24 13:02 | -7.92243 | 9.67135 | 39865 ft | 494 kts | 317° |
| 2026-04-24 13:03 | -7.88152 | 9.63053 | 39865 ft | 494 kts | 317° |
| 2026-04-24 13:03 | -7.83302 | 9.58214 | 39866 ft | 494 kts | 317° |
| 2026-04-24 13:04 | -7.78417 | 9.53343 | 39868 ft | 494 kts | 317° |
| 2026-04-24 13:04 | -7.73530 | 9.48470 | 39864 ft | 494 kts | 317° |
| 2026-04-24 13:05 | -7.68646 | 9.43603 | 39864 ft | 494 kts | 317° |
| 2026-04-24 13:05 | -7.63764 | 9.38739 | 39865 ft | 493 kts | 317° |
| 2026-04-24 13:06 | -7.58885 | 9.33880 | 39864 ft | 493 kts | 317° |
| 2026-04-24 13:06 | -7.54000 | 9.29016 | 39864 ft | 493 kts | 317° |
| 2026-04-24 13:07 | -7.49119 | 9.24158 | 39865 ft | 493 kts | 317° |
| 2026-04-24 13:07 | -7.44245 | 9.19308 | 39867 ft | 492 kts | 317° |
| 2026-04-24 13:08 | -7.39376 | 9.14466 | 39864 ft | 491 kts | 317° |
| 2026-04-24 13:08 | -7.34506 | 9.09624 | 39871 ft | 491 kts | 317° |
| 2026-04-24 13:09 | -7.27200 | 9.02363 | 39872 ft | 493 kts | 317° |
| 2026-04-24 13:09 | -7.22352 | 8.97548 | 39870 ft | 493 kts | 317° |
| 2026-04-24 13:10 | -7.17465 | 8.92694 | 39870 ft | 493 kts | 317° |
| 2026-04-24 13:10 | -7.12580 | 8.87844 | 39874 ft | 493 kts | 317° |
| 2026-04-24 13:11 | -7.07688 | 8.82989 | 39868 ft | 495 kts | 317° |
| 2026-04-24 13:11 | -7.02785 | 8.78123 | 39867 ft | 495 kts | 317° |
| 2026-04-24 13:12 | -6.97883 | 8.73261 | 39867 ft | 495 kts | 317° |
| 2026-04-24 13:12 | -6.92971 | 8.68391 | 39867 ft | 495 kts | 317° |
| 2026-04-24 13:13 | -6.88061 | 8.63524 | 39867 ft | 496 kts | 317° |
| 2026-04-24 13:13 | -6.83142 | 8.58648 | 39867 ft | 496 kts | 317° |
| 2026-04-24 13:14 | -6.78226 | 8.53778 | 39867 ft | 496 kts | 317° |
| 2026-04-24 13:14 | -6.73301 | 8.48901 | 39868 ft | 498 kts | 317° |
| 2026-04-24 13:15 | -6.68345 | 8.43995 | 39868 ft | 501 kts | 317° |
| 2026-04-24 13:15 | -6.63379 | 8.39080 | 39867 ft | 501 kts | 317° |
| 2026-04-24 13:16 | -6.58413 | 8.34165 | 39871 ft | 501 kts | 317° |
| 2026-04-24 13:16 | -6.53462 | 8.29266 | 39867 ft | 497 kts | 317° |
| 2026-04-24 13:17 | -6.48572 | 8.24431 | 39867 ft | 496 kts | 317° |
| 2026-04-24 13:17 | -6.43655 | 8.19570 | 39867 ft | 496 kts | 317° |
| 2026-04-24 13:18 | -6.38737 | 8.14710 | 39866 ft | 496 kts | 317° |
| 2026-04-24 13:18 | -6.33796 | 8.09829 | 39868 ft | 499 kts | 317° |
| 2026-04-24 13:19 | -6.28834 | 8.04928 | 39868 ft | 500 kts | 317° |
| 2026-04-24 13:19 | -6.23872 | 8.00028 | 39867 ft | 500 kts | 317° |
| 2026-04-24 13:20 | -6.18912 | 7.95130 | 39867 ft | 499 kts | 317° |
| 2026-04-24 13:20 | -6.13983 | 7.90265 | 39869 ft | 495 kts | 317° |
| 2026-04-24 13:21 | -6.09078 | 7.85425 | 39870 ft | 494 kts | 317° |
| 2026-04-24 13:21 | -6.04175 | 7.80589 | 39870 ft | 494 kts | 317° |
| 2026-04-24 13:22 | -5.99263 | 7.75746 | 39870 ft | 496 kts | 317° |
| 2026-04-24 13:22 | -5.94325 | 7.70879 | 39870 ft | 498 kts | 317° |
| 2026-04-24 13:23 | -5.89378 | 7.66003 | 39867 ft | 498 kts | 317° |
| 2026-04-24 13:23 | -5.84427 | 7.61124 | 39867 ft | 498 kts | 317° |
| 2026-04-24 13:24 | -5.79516 | 7.56286 | 39867 ft | 497 kts | 317° |
| 2026-04-24 13:24 | -5.74585 | 7.51429 | 39867 ft | 496 kts | 317° |
| 2026-04-24 13:25 | -5.69667 | 7.46586 | 39865 ft | 495 kts | 317° |
| 2026-04-24 13:25 | -5.64748 | 7.41745 | 39862 ft | 495 kts | 317° |
| 2026-04-24 13:26 | -5.59818 | 7.36894 | 39865 ft | 497 kts | 317° |
| 2026-04-24 13:26 | -5.54878 | 7.32034 | 39864 ft | 497 kts | 317° |
| 2026-04-24 13:27 | -5.49934 | 7.27171 | 39864 ft | 497 kts | 317° |
| 2026-04-24 13:27 | -5.44992 | 7.22311 | 39864 ft | 497 kts | 317° |
| 2026-04-24 13:28 | -5.40046 | 7.17448 | 39865 ft | 497 kts | 317° |
| 2026-04-24 13:28 | -5.35103 | 7.12590 | 39862 ft | 497 kts | 317° |
| 2026-04-24 13:29 | -5.30159 | 7.07732 | 39862 ft | 497 kts | 317° |
| 2026-04-24 13:29 | -5.25218 | 7.02878 | 39864 ft | 496 kts | 317° |
| 2026-04-24 13:30 | -5.20286 | 6.98033 | 39865 ft | 496 kts | 317° |
| 2026-04-24 13:30 | -5.15357 | 6.93193 | 39865 ft | 496 kts | 317° |
| 2026-04-24 13:31 | -5.10431 | 6.88358 | 39862 ft | 496 kts | 317° |
| 2026-04-24 13:31 | -5.05500 | 6.83517 | 39866 ft | 496 kts | 317° |
| 2026-04-24 13:32 | -5.00580 | 6.78689 | 39861 ft | 493 kts | 317° |
| 2026-04-24 13:32 | -4.95677 | 6.73879 | 39862 ft | 493 kts | 317° |
| 2026-04-24 13:33 | -4.90808 | 6.69104 | 39863 ft | 493 kts | 317° |
| 2026-04-24 13:33 | -4.85914 | 6.64304 | 39861 ft | 491 kts | 317° |
| 2026-04-24 13:34 | -4.81011 | 6.59543 | 39859 ft | 490 kts | 320° |
| 2026-04-24 13:34 | -4.75553 | 6.55480 | 39861 ft | 488 kts | 327° |
| 2026-04-24 13:35 | -4.69916 | 6.51694 | 39862 ft | 488 kts | 328° |
| 2026-04-24 13:35 | -4.64246 | 6.47953 | 39862 ft | 488 kts | 328° |
| 2026-04-24 13:36 | -4.58573 | 6.44201 | 39862 ft | 489 kts | 328° |
| 2026-04-24 13:36 | -4.52887 | 6.40428 | 39861 ft | 491 kts | 328° |
| 2026-04-24 13:37 | -4.47191 | 6.36642 | 39859 ft | 492 kts | 327° |
| 2026-04-24 13:37 | -4.41490 | 6.32853 | 39859 ft | 492 kts | 327° |
| 2026-04-24 13:38 | -4.35786 | 6.29064 | 39856 ft | 492 kts | 327° |
| 2026-04-24 13:38 | -4.30079 | 6.25274 | 39856 ft | 492 kts | 327° |
| 2026-04-24 13:39 | -4.24376 | 6.21487 | 39856 ft | 492 kts | 328° |
| 2026-04-24 13:39 | -4.18673 | 6.17700 | 39857 ft | 492 kts | 328° |
| 2026-04-24 13:40 | -4.12964 | 6.13911 | 39856 ft | 492 kts | 328° |
| 2026-04-24 13:40 | -4.07260 | 6.10126 | 39856 ft | 492 kts | 328° |
| 2026-04-24 13:41 | -4.01595 | 6.06367 | 39857 ft | 490 kts | 327° |
| 2026-04-24 13:41 | -3.95921 | 6.02602 | 39856 ft | 488 kts | 327° |
| 2026-04-24 13:42 | -3.90265 | 5.98850 | 39856 ft | 488 kts | 328° |
| 2026-04-24 13:42 | -3.84604 | 5.95096 | 39856 ft | 488 kts | 327° |
| 2026-04-24 13:43 | -3.78944 | 5.91343 | 39856 ft | 488 kts | 328° |
| 2026-04-24 13:43 | -3.73277 | 5.87586 | 39857 ft | 489 kts | 328° |
| 2026-04-24 13:44 | -3.67604 | 5.83826 | 39856 ft | 489 kts | 328° |
| 2026-04-24 13:44 | -3.61930 | 5.80065 | 39854 ft | 489 kts | 328° |
| 2026-04-24 13:45 | -3.56256 | 5.76305 | 39851 ft | 489 kts | 328° |
| 2026-04-24 13:45 | -3.50583 | 5.72546 | 39851 ft | 489 kts | 328° |
| 2026-04-24 13:46 | -3.44907 | 5.68785 | 39851 ft | 490 kts | 328° |
| 2026-04-24 13:46 | -3.39257 | 5.65043 | 39851 ft | 490 kts | 328° |
| 2026-04-24 13:47 | -3.33574 | 5.61279 | 39851 ft | 490 kts | 328° |
| 2026-04-24 13:47 | -3.27889 | 5.57514 | 39851 ft | 490 kts | 328° |
| 2026-04-24 13:48 | -3.22210 | 5.53754 | 39851 ft | 490 kts | 328° |
| 2026-04-24 13:48 | -3.16522 | 5.49989 | 39851 ft | 490 kts | 328° |
| 2026-04-24 13:49 | -3.10840 | 5.46228 | 39851 ft | 490 kts | 328° |
| 2026-04-24 13:49 | -3.06115 | 5.43101 | 39851 ft | 490 kts | 327° |
| 2026-04-24 13:50 | -2.99507 | 5.38728 | 39851 ft | 491 kts | 328° |
| 2026-04-24 13:50 | -2.94732 | 5.35569 | 39850 ft | 491 kts | 328° |
| 2026-04-24 13:51 | -2.89032 | 5.31797 | 39853 ft | 491 kts | 328° |
| 2026-04-24 13:51 | -2.83399 | 5.28070 | 39848 ft | 487 kts | 328° |
| 2026-04-24 13:52 | -2.77745 | 5.24330 | 39849 ft | 487 kts | 328° |
| 2026-04-24 13:52 | -2.72097 | 5.20595 | 39846 ft | 487 kts | 328° |
| 2026-04-24 13:53 | -2.66448 | 5.16860 | 39843 ft | 487 kts | 328° |
| 2026-04-24 13:53 | -2.60791 | 5.13119 | 39846 ft | 488 kts | 328° |
| 2026-04-24 13:54 | -2.55130 | 5.09377 | 39848 ft | 488 kts | 328° |
| 2026-04-24 13:54 | -2.49466 | 5.05632 | 39845 ft | 488 kts | 328° |
| 2026-04-24 13:55 | -2.43800 | 5.01887 | 39848 ft | 488 kts | 328° |
| 2026-04-24 13:55 | -2.38133 | 4.98142 | 39848 ft | 488 kts | 328° |
| 2026-04-24 13:56 | -2.32466 | 4.94397 | 39840 ft | 488 kts | 327° |
| 2026-04-24 13:56 | -2.26768 | 4.90632 | 39847 ft | 493 kts | 327° |
| 2026-04-24 13:57 | -2.21019 | 4.86833 | 39843 ft | 496 kts | 327° |
| 2026-04-24 13:57 | -2.15248 | 4.83020 | 39841 ft | 497 kts | 327° |
| 2026-04-24 13:58 | -2.09483 | 4.79211 | 39845 ft | 497 kts | 327° |
| 2026-04-24 13:58 | -2.03713 | 4.75400 | 39846 ft | 497 kts | 327° |
| 2026-04-24 13:59 | -1.97940 | 4.71587 | 39845 ft | 497 kts | 327° |
| 2026-04-24 13:59 | -1.92173 | 4.67778 | 39845 ft | 497 kts | 327° |
| 2026-04-24 14:00 | -1.86401 | 4.63966 | 39846 ft | 498 kts | 328° |
| 2026-04-24 14:00 | -1.80619 | 4.60148 | 39845 ft | 498 kts | 328° |
| 2026-04-24 14:01 | -1.74833 | 4.56327 | 39844 ft | 498 kts | 328° |
| 2026-04-24 14:01 | -1.69091 | 4.52536 | 39844 ft | 498 kts | 328° |
| 2026-04-24 14:02 | -1.63301 | 4.48714 | 39843 ft | 498 kts | 328° |
| 2026-04-24 14:02 | -1.57516 | 4.44895 | 39843 ft | 498 kts | 328° |
| 2026-04-24 14:03 | -1.51729 | 4.41075 | 39843 ft | 498 kts | 328° |
| 2026-04-24 14:03 | -1.45957 | 4.37265 | 39840 ft | 496 kts | 328° |
| 2026-04-24 14:04 | -1.40209 | 4.33470 | 39841 ft | 495 kts | 328° |
| 2026-04-24 14:04 | -1.34464 | 4.29679 | 39839 ft | 495 kts | 328° |
| 2026-04-24 14:05 | -1.28717 | 4.25886 | 39841 ft | 495 kts | 328° |
| 2026-04-24 14:05 | -1.23003 | 4.22116 | 39836 ft | 495 kts | 328° |
| 2026-04-24 14:06 | -1.17261 | 4.18327 | 39841 ft | 495 kts | 328° |
| 2026-04-24 14:06 | -1.11502 | 4.14527 | 39843 ft | 496 kts | 328° |
| 2026-04-24 14:07 | -1.05734 | 4.10722 | 39837 ft | 497 kts | 328° |
| 2026-04-24 14:07 | -0.99965 | 4.06915 | 39835 ft | 497 kts | 328° |
| 2026-04-24 14:08 | -0.94191 | 4.03106 | 39837 ft | 497 kts | 328° |
| 2026-04-24 14:08 | -0.88418 | 3.99297 | 39831 ft | 497 kts | 328° |
| 2026-04-24 14:09 | -0.82643 | 3.95487 | 39834 ft | 497 kts | 328° |
| 2026-04-24 14:09 | -0.76872 | 3.91680 | 39833 ft | 497 kts | 328° |
| 2026-04-24 14:10 | -0.71100 | 3.87873 | 39836 ft | 497 kts | 328° |
| 2026-04-24 14:10 | -0.65318 | 3.84059 | 39838 ft | 498 kts | 328° |
| 2026-04-24 14:11 | -0.59544 | 3.80250 | 39833 ft | 498 kts | 328° |
| 2026-04-24 14:12 | -0.50887 | 3.74540 | 39831 ft | 497 kts | 328° |
| 2026-04-24 14:12 | -0.45117 | 3.70734 | 39833 ft | 497 kts | 328° |
| 2026-04-24 14:13 | -0.39348 | 3.66930 | 39829 ft | 497 kts | 328° |
| 2026-04-24 14:13 | -0.33577 | 3.63123 | 39829 ft | 497 kts | 328° |
| 2026-04-24 14:14 | -0.27847 | 3.59344 | 39831 ft | 497 kts | 328° |
| 2026-04-24 14:14 | -0.19198 | 3.53639 | 39830 ft | 497 kts | 328° |
| 2026-04-24 14:15 | -0.13430 | 3.49836 | 39831 ft | 497 kts | 328° |
| 2026-04-24 14:15 | -0.07659 | 3.46030 | 39831 ft | 497 kts | 328° |
| 2026-04-24 14:16 | -0.01896 | 3.42229 | 39830 ft | 497 kts | 328° |
| 2026-04-24 14:17 | 0.06747 | 3.36528 | 39826 ft | 495 kts | 328° |
| 2026-04-24 14:17 | 0.15361 | 3.30847 | 39826 ft | 495 kts | 328° |
| 2026-04-24 14:18 | 0.21112 | 3.27054 | 39829 ft | 495 kts | 328° |
| 2026-04-24 14:18 | 0.26819 | 3.23290 | 39829 ft | 495 kts | 328° |
| 2026-04-24 14:19 | 0.32560 | 3.19504 | 39827 ft | 495 kts | 328° |
| 2026-04-24 14:19 | 0.38304 | 3.15715 | 39820 ft | 495 kts | 328° |
| 2026-04-24 14:20 | 0.44042 | 3.11930 | 39826 ft | 493 kts | 328° |
| 2026-04-24 14:20 | 0.49763 | 3.08157 | 39826 ft | 493 kts | 328° |
| 2026-04-24 14:21 | 0.55486 | 3.04382 | 39827 ft | 493 kts | 329° |
| 2026-04-24 14:21 | 0.61224 | 3.00598 | 39826 ft | 495 kts | 329° |
| 2026-04-24 14:22 | 0.66982 | 2.96800 | 39826 ft | 495 kts | 329° |
| 2026-04-24 14:23 | 0.75610 | 2.91108 | 39826 ft | 496 kts | 329° |
| 2026-04-24 14:23 | 0.81362 | 2.87314 | 39826 ft | 495 kts | 328° |
| 2026-04-24 14:24 | 0.87106 | 2.83525 | 39823 ft | 495 kts | 328° |
| 2026-04-24 14:24 | 0.92853 | 2.79733 | 39824 ft | 495 kts | 328° |
| 2026-04-24 14:25 | 0.97630 | 2.76582 | 39824 ft | 495 kts | 328° |
| 2026-04-24 14:25 | 1.04315 | 2.72171 | 39823 ft | 495 kts | 328° |
| 2026-04-24 14:26 | 1.10060 | 2.68381 | 39822 ft | 495 kts | 328° |
| 2026-04-24 14:26 | 1.15804 | 2.64590 | 39817 ft | 494 kts | 328° |
| 2026-04-24 14:27 | 1.21546 | 2.60802 | 39825 ft | 495 kts | 328° |
| 2026-04-24 14:27 | 1.27293 | 2.57009 | 39823 ft | 495 kts | 328° |
| 2026-04-24 14:28 | 1.33037 | 2.53219 | 39822 ft | 495 kts | 328° |
| 2026-04-24 14:28 | 1.38786 | 2.49424 | 39824 ft | 495 kts | 328° |
| 2026-04-24 14:29 | 1.44529 | 2.45634 | 39825 ft | 495 kts | 328° |
| 2026-04-24 14:29 | 1.50274 | 2.41842 | 39820 ft | 495 kts | 328° |
| 2026-04-24 14:30 | 1.55049 | 2.38690 | 39822 ft | 495 kts | 328° |
| 2026-04-24 14:30 | 1.61756 | 2.34262 | 39824 ft | 494 kts | 328° |
| 2026-04-24 14:31 | 1.67490 | 2.30476 | 39824 ft | 494 kts | 328° |
| 2026-04-24 14:31 | 1.73224 | 2.26691 | 39826 ft | 493 kts | 329° |
| 2026-04-24 14:32 | 1.78931 | 2.22922 | 39826 ft | 491 kts | 329° |
| 2026-04-24 14:32 | 1.84630 | 2.19159 | 39824 ft | 491 kts | 329° |
| 2026-04-24 14:33 | 1.90325 | 2.15398 | 39824 ft | 491 kts | 329° |
| 2026-04-24 14:33 | 1.96030 | 2.11631 | 39826 ft | 492 kts | 328° |
| 2026-04-24 14:34 | 2.01746 | 2.07856 | 39827 ft | 493 kts | 328° |
| 2026-04-24 14:34 | 2.07466 | 2.04077 | 39826 ft | 493 kts | 328° |
| 2026-04-24 14:35 | 2.13181 | 2.00302 | 39829 ft | 493 kts | 328° |
| 2026-04-24 14:35 | 2.18869 | 1.96544 | 39829 ft | 493 kts | 328° |
| 2026-04-24 14:36 | 2.24584 | 1.92768 | 39826 ft | 493 kts | 328° |
| 2026-04-24 14:36 | 2.30306 | 1.88987 | 39818 ft | 493 kts | 328° |
| 2026-04-24 14:37 | 2.36039 | 1.85199 | 39825 ft | 494 kts | 328° |
| 2026-04-24 14:37 | 2.40810 | 1.82046 | 39823 ft | 495 kts | 328° |
| 2026-04-24 14:38 | 2.46551 | 1.78251 | 39823 ft | 495 kts | 328° |
| 2026-04-24 14:38 | 2.52291 | 1.74456 | 39826 ft | 495 kts | 328° |
| 2026-04-24 14:39 | 2.58031 | 1.70661 | 39826 ft | 495 kts | 328° |
| 2026-04-24 14:39 | 2.63771 | 1.66866 | 39826 ft | 495 kts | 328° |
| 2026-04-24 14:40 | 2.69515 | 1.63068 | 39828 ft | 495 kts | 328° |
| 2026-04-24 14:40 | 2.75260 | 1.59269 | 39823 ft | 495 kts | 328° |
| 2026-04-24 14:41 | 2.81007 | 1.55467 | 39823 ft | 495 kts | 328° |
| 2026-04-24 14:41 | 2.86754 | 1.51666 | 39825 ft | 496 kts | 328° |
| 2026-04-24 14:42 | 2.92533 | 1.47843 | 39822 ft | 500 kts | 328° |
| 2026-04-24 14:42 | 2.98339 | 1.44002 | 39824 ft | 500 kts | 328° |
| 2026-04-24 14:43 | 3.04146 | 1.40159 | 39823 ft | 501 kts | 328° |
| 2026-04-24 14:43 | 3.09950 | 1.36317 | 39823 ft | 499 kts | 328° |
| 2026-04-24 14:44 | 3.15697 | 1.32513 | 39823 ft | 498 kts | 328° |
| 2026-04-24 14:44 | 3.21475 | 1.28688 | 39824 ft | 498 kts | 328° |
| 2026-04-24 14:45 | 3.27254 | 1.24862 | 39825 ft | 498 kts | 328° |
| 2026-04-24 14:45 | 3.33029 | 1.21038 | 39823 ft | 498 kts | 328° |
| 2026-04-24 14:46 | 3.38805 | 1.17212 | 39819 ft | 498 kts | 328° |
| 2026-04-24 14:46 | 3.44588 | 1.13381 | 39819 ft | 498 kts | 328° |
| 2026-04-24 14:47 | 3.50389 | 1.09539 | 39825 ft | 501 kts | 328° |
| 2026-04-24 14:47 | 3.56203 | 1.05687 | 39823 ft | 501 kts | 328° |
| 2026-04-24 14:48 | 3.62024 | 1.01829 | 39823 ft | 502 kts | 328° |
| 2026-04-24 14:48 | 3.67842 | 0.97973 | 39823 ft | 501 kts | 328° |
| 2026-04-24 14:49 | 3.73659 | 0.94117 | 39821 ft | 501 kts | 328° |
| 2026-04-24 14:49 | 3.79475 | 0.90261 | 39824 ft | 501 kts | 328° |
| 2026-04-24 14:50 | 3.85293 | 0.86403 | 39825 ft | 501 kts | 328° |
| 2026-04-24 14:50 | 3.91110 | 0.82545 | 39823 ft | 501 kts | 328° |
| 2026-04-24 14:51 | 3.96926 | 0.78687 | 39821 ft | 501 kts | 328° |
| 2026-04-24 14:51 | 4.02719 | 0.74909 | 39457 ft | 496 kts | 330° |
| 2026-04-24 14:51 | 4.05695 | 0.73181 | 38815 ft | 495 kts | 333° |
| 2026-04-24 14:52 | 4.08724 | 0.71519 | 38018 ft | 497 kts | 333° |
| 2026-04-24 14:52 | 4.11760 | 0.69878 | 37304 ft | 496 kts | 333° |
| 2026-04-24 14:52 | 4.14790 | 0.68230 | 36627 ft | 495 kts | 333° |
| 2026-04-24 14:52 | 4.17806 | 0.66569 | 35945 ft | 494 kts | 332° |
| 2026-04-24 14:53 | 4.20810 | 0.64895 | 35230 ft | 495 kts | 332° |
| 2026-04-24 14:53 | 4.23820 | 0.63204 | 34450 ft | 497 kts | 332° |
| 2026-04-24 14:53 | 4.26840 | 0.61500 | 33603 ft | 500 kts | 332° |
| 2026-04-24 14:53 | 4.29882 | 0.59780 | 32714 ft | 503 kts | 332° |
| 2026-04-24 14:54 | 4.32928 | 0.58055 | 31824 ft | 504 kts | 332° |
| 2026-04-24 14:54 | 4.35989 | 0.56323 | 30929 ft | 506 kts | 332° |
| 2026-04-24 14:54 | 4.39055 | 0.54588 | 30001 ft | 507 kts | 332° |
| 2026-04-24 14:54 | 4.42135 | 0.52847 | 28952 ft | 508 kts | 332° |
| 2026-04-24 14:55 | 4.44165 | 0.51699 | 28522 ft | 504 kts | 332° |
| 2026-04-24 14:55 | 4.48202 | 0.49415 | 27687 ft | 494 kts | 332° |
| 2026-04-24 14:55 | 4.51174 | 0.47734 | 27056 ft | 487 kts | 332° |
| 2026-04-24 14:55 | 4.54110 | 0.46074 | 26417 ft | 482 kts | 332° |
| 2026-04-24 14:56 | 4.57010 | 0.44434 | 25797 ft | 476 kts | 332° |
| 2026-04-24 14:56 | 4.59872 | 0.42815 | 25173 ft | 471 kts | 332° |
| 2026-04-24 14:56 | 4.62714 | 0.41208 | 24559 ft | 466 kts | 332° |
| 2026-04-24 14:56 | 4.65526 | 0.39618 | 23947 ft | 462 kts | 332° |
| 2026-04-24 14:57 | 4.68313 | 0.38043 | 23321 ft | 458 kts | 331° |
| 2026-04-24 14:57 | 4.71071 | 0.36482 | 22635 ft | 453 kts | 332° |
| 2026-04-24 14:57 | 4.73794 | 0.34942 | 22014 ft | 446 kts | 332° |
| 2026-04-24 14:57 | 4.76546 | 0.33558 | 21373 ft | 440 kts | 338° |
| 2026-04-24 14:58 | 4.79359 | 0.32394 | 20721 ft | 435 kts | 340° |
| 2026-04-24 14:58 | 4.82172 | 0.31315 | 20091 ft | 430 kts | 341° |
| 2026-04-24 14:58 | 4.84965 | 0.30289 | 19485 ft | 425 kts | 341° |
| 2026-04-24 14:58 | 4.87699 | 0.29303 | 18873 ft | 421 kts | 341° |
| 2026-04-24 14:59 | 4.90443 | 0.28317 | 18257 ft | 417 kts | 341° |
| 2026-04-24 14:59 | 4.93163 | 0.27337 | 17576 ft | 413 kts | 341° |
| 2026-04-24 14:59 | 4.95850 | 0.26363 | 16949 ft | 408 kts | 341° |
| 2026-04-24 14:59 | 4.98497 | 0.25399 | 16329 ft | 403 kts | 342° |
| 2026-04-24 15:00 | 5.01120 | 0.24442 | 15710 ft | 398 kts | 341° |
| 2026-04-24 15:00 | 5.03705 | 0.23496 | 15113 ft | 393 kts | 342° |
| 2026-04-24 15:00 | 5.06262 | 0.22560 | 14515 ft | 389 kts | 342° |
| 2026-04-24 15:00 | 5.08793 | 0.21634 | 13914 ft | 385 kts | 342° |
| 2026-04-24 15:01 | 5.11293 | 0.20719 | 13271 ft | 381 kts | 342° |
| 2026-04-24 15:01 | 5.13766 | 0.19814 | 12688 ft | 376 kts | 342° |
| 2026-04-24 15:01 | 5.16213 | 0.18919 | 12083 ft | 372 kts | 342° |
| 2026-04-24 15:01 | 5.18639 | 0.18032 | 11494 ft | 370 kts | 342° |
| 2026-04-24 15:02 | 5.21050 | 0.17149 | 11013 ft | 364 kts | 342° |
| 2026-04-24 15:02 | 5.23369 | 0.16298 | 10863 ft | 346 kts | 342° |
| 2026-04-24 15:02 | 5.25578 | 0.15486 | 10751 ft | 329 kts | 342° |
| 2026-04-24 15:02 | 5.27671 | 0.14716 | 10624 ft | 310 kts | 343° |
| 2026-04-24 15:03 | 5.29615 | 0.14000 | 10479 ft | 287 kts | 343° |
| 2026-04-24 15:03 | 5.31509 | 0.13307 | 10203 ft | 294 kts | 343° |
| 2026-04-24 15:03 | 5.33451 | 0.12603 | 9990 ft | 297 kts | 343° |
| 2026-04-24 15:03 | 5.35390 | 0.11899 | 9756 ft | 295 kts | 343° |
| 2026-04-24 15:04 | 5.37319 | 0.11196 | 9501 ft | 294 kts | 343° |
| 2026-04-24 15:04 | 5.39239 | 0.10494 | 9247 ft | 294 kts | 343° |
| 2026-04-24 15:04 | 5.41157 | 0.09793 | 8967 ft | 293 kts | 342° |
| 2026-04-24 15:04 | 5.43067 | 0.09094 | 8670 ft | 292 kts | 342° |
| 2026-04-24 15:05 | 5.44972 | 0.08397 | 8367 ft | 291 kts | 342° |
| 2026-04-24 15:05 | 5.46869 | 0.07702 | 8080 ft | 290 kts | 342° |
| 2026-04-24 15:05 | 5.48765 | 0.07007 | 7799 ft | 290 kts | 342° |
| 2026-04-24 15:05 | 5.50658 | 0.06315 | 7510 ft | 290 kts | 341° |
| 2026-04-24 15:06 | 5.52564 | 0.05672 | 7216 ft | 288 kts | 346° |
| 2026-04-24 15:06 | 5.54524 | 0.05280 | 6948 ft | 287 kts | 352° |
| 2026-04-24 15:06 | 5.56498 | 0.04986 | 6669 ft | 287 kts | 352° |
| 2026-04-24 15:06 | 5.58476 | 0.04717 | 6387 ft | 287 kts | 352° |
| 2026-04-24 15:07 | 5.60458 | 0.04464 | 6110 ft | 287 kts | 352° |
| 2026-04-24 15:07 | 5.62434 | 0.04222 | 5815 ft | 286 kts | 352° |
| 2026-04-24 15:07 | 5.64411 | 0.03995 | 5520 ft | 286 kts | 352° |
| 2026-04-24 15:07 | 5.66386 | 0.03779 | 5225 ft | 286 kts | 352° |
| 2026-04-24 15:08 | 5.68362 | 0.03577 | 4954 ft | 284 kts | 352° |
| 2026-04-24 15:08 | 5.70331 | 0.03386 | 4679 ft | 284 kts | 353° |
| 2026-04-24 15:08 | 5.72290 | 0.03208 | 4332 ft | 279 kts | 352° |
| 2026-04-24 15:08 | 5.74195 | 0.03033 | 3971 ft | 269 kts | 352° |
| 2026-04-24 15:09 | 5.75959 | 0.02608 | 3616 ft | 253 kts | 330° |
| 2026-04-24 15:09 | 5.77244 | 0.01520 | 3284 ft | 236 kts | 304° |
| 2026-04-24 15:09 | 5.78138 | 0.00192 | 3032 ft | 224 kts | 298° |
| 2026-04-24 15:09 | 5.78952 | -0.01137 | 3008 ft | 223 kts | 298° |
| 2026-04-24 15:10 | 5.79751 | -0.02481 | 3005 ft | 224 kts | 298° |
| 2026-04-24 15:10 | 5.80515 | -0.03847 | 2902 ft | 224 kts | 293° |
| 2026-04-24 15:10 | 5.80771 | -0.05354 | 2783 ft | 219 kts | 261° |
| 2026-04-24 15:10 | 5.80412 | -0.06801 | 2673 ft | 216 kts | 249° |
| 2026-04-24 15:11 | 5.79842 | -0.08182 | 2447 ft | 214 kts | 233° |
| 2026-04-24 15:11 | 5.78791 | -0.09214 | 2277 ft | 212 kts | 212° |
| 2026-04-24 15:11 | 5.77446 | -0.09784 | 2118 ft | 208 kts | 198° |
| 2026-04-24 15:11 | 5.76127 | -0.10242 | 2098 ft | 191 kts | 201° |
| 2026-04-24 15:12 | 5.74940 | -0.10744 | 2103 ft | 182 kts | 203° |
| 2026-04-24 15:12 | 5.72626 | -0.11713 | 2095 ft | 180 kts | 204° |
| 2026-04-24 15:12 | 5.71477 | -0.12193 | 2043 ft | 178 kts | 202° |
| 2026-04-24 15:13 | 5.70328 | -0.12669 | 1997 ft | 179 kts | 203° |
| 2026-04-24 15:13 | 5.69185 | -0.13141 | 1785 ft | 174 kts | 204° |
| 2026-04-24 15:13 | 5.68112 | -0.13584 | 1568 ft | 159 kts | 203° |
| 2026-04-24 15:13 | 5.67127 | -0.13991 | 1357 ft | 148 kts | 203° |
| 2026-04-24 15:14 | 5.66209 | -0.14371 | 1173 ft | 137 kts | 204° |
| 2026-04-24 15:14 | 5.65355 | -0.14725 | 1053 ft | 131 kts | 204° |
| 2026-04-24 15:14 | 5.64507 | -0.15070 | 822 ft | 130 kts | 204° |
| 2026-04-24 15:14 | 5.63680 | -0.15426 | 667 ft | 130 kts | 204° |
| 2026-04-24 15:15 | 5.62848 | -0.15776 | 461 ft | 128 kts | 202° |
| 2026-04-24 15:15 | 5.62035 | -0.16096 | 322 ft | 125 kts | 200° |
| 2026-04-24 15:15 | 5.61230 | -0.16428 | 240 ft | 124 kts | 200° |
| 2026-04-24 15:15 | 5.60519 | -0.16723 | 227 ft | 86 kts | 202° |
| 2026-04-24 15:16 | 5.60150 | -0.16868 | 222 ft | 36 kts | 202° |
| 2026-04-24 15:16 | 5.59945 | -0.16992 | 220 ft | 33 kts | 221° |
| 2026-04-24 15:16 | 5.59842 | -0.17109 | 221 ft | 16 kts | 232° |
| 2026-04-24 15:16 | 5.59824 | -0.17195 | 217 ft | 10 kts | 305° |
| 2026-04-24 15:17 | 5.59882 | -0.17195 | 222 ft | 10 kts | 23° |
| 2026-04-24 15:17 | 5.59951 | -0.17166 | 221 ft | 12 kts | 23° |
| 2026-04-24 15:17 | 5.60040 | -0.17128 | 218 ft | 14 kts | 22° |
| 2026-04-24 15:17 | 5.60128 | -0.17091 | 222 ft | 11 kts | 22° |
| 2026-04-24 15:18 | 5.60201 | -0.17062 | 223 ft | 12 kts | 22° |
| 2026-04-24 15:18 | 5.60271 | -0.17033 | 224 ft | 8 kts | 22° |
| 2026-04-24 15:18 | 5.60313 | -0.17045 | 223 ft | 6 kts | 306° |
| 2026-04-24 15:18 | 5.60334 | -0.17090 | 228 ft | 4 kts | 293° |
| 2026-04-24 15:19 | 5.60338 | -0.17100 | 228 ft | 2 kts | 292° |
| 2026-04-24 15:19 | 5.60341 | -0.17108 | 227 ft | 0 kts | 292° |
| 2026-04-24 15:19 | 5.60342 | -0.17110 | 227 ft | 0 kts | 291° |